Time;durP1;ratioP1;P1;durP2;ratioP2;P2;SDS_P1;SDS_P2;PMS_P1;PMS_P2;Temp;Humidity;BMP_temperature;BMP_pressure;BME280_temperature;BME280_humidity;BME280_pressure;Samples;Min_cycle;Max_cycle;Signal;HPM_P1;HPM_P2
2022/02/10 00:21:12;;;;;;;0.40;0.40;;;2.40;97.60;;;;;;5034058;28;20227;-70
2022/02/10 00:24:34;;;;;;;0.30;0.30;;;2.30;97.80;;;;;;5033957;28;20212;-70
2022/02/10 00:34:42;;;;;;;0.30;0.30;;;2.20;98.10;;;;;;5033496;28;20209;-70
2022/02/10 00:37:12;;;;;;;0.40;0.40;;;2.20;98.10;;;;;;5033527;28;20172;-70
2022/02/10 00:42:05;;;;;;;0.40;0.40;;;2.20;98.20;;;;;;5033570;28;20213;-70
2022/02/10 00:44:31;;;;;;;0.30;0.30;;;2.20;98.20;;;;;;5033430;28;20685;-70
2022/02/10 00:46:56;;;;;;;0.30;0.30;;;2.20;98.10;;;;;;5033466;28;20430;-70
2022/02/10 00:49:22;;;;;;;0.30;0.30;;;2.10;98.20;;;;;;5032101;28;20170;-70
2022/02/10 00:51:49;;;;;;;0.30;0.30;;;2.10;98.30;;;;;;5033587;28;20237;-70
2022/02/10 00:54:19;;;;;;;0.30;0.30;;;2.10;98.40;;;;;;5033589;28;20163;-70
2022/02/10 00:56:45;;;;;;;0.40;0.40;;;2.10;98.40;;;;;;5033468;28;20250;-70
2022/02/10 01:10:27;;;;;;;0.32;0.32;;;2.20;98.40;;;;;;5033313;28;20209;-70
2022/02/10 01:31:40;;;;;;;0.30;0.30;;;2.10;98.40;;;;;;5033257;28;20612;-70
2022/02/10 01:34:05;;;;;;;0.30;0.30;;;2.00;98.10;;;;;;5032925;28;20183;-70
2022/02/10 01:36:31;;;;;;;0.30;0.30;;;2.10;98.20;;;;;;5032965;28;20317;-70
2022/02/10 01:38:57;;;;;;;0.30;0.30;;;2.00;98.20;;;;;;5032908;28;20172;-70
2022/02/10 01:42:31;;;;;;;0.40;0.40;;;2.00;98.30;;;;;;5032869;28;20302;-70
2022/02/10 02:03:37;;;;;;;0.30;0.30;;;2.00;98.60;;;;;;5036286;28;20278;-70
2022/02/10 02:06:12;;;;;;;0.30;0.30;;;2.10;98.70;;;;;;5036338;28;20183;-70
2022/02/10 02:08:40;;;;;;;0.30;0.30;;;2.10;98.60;;;;;;5036257;28;20410;-70
2022/02/10 02:11:06;;;;;;;0.30;0.30;;;2.10;98.40;;;;;;5036439;28;20167;-70
2022/02/10 02:13:32;;;;;;;0.30;0.30;;;2.20;98.20;;;;;;5036099;28;20213;-70
2022/02/10 02:15:58;;;;;;;0.40;0.40;;;2.10;98.00;;;;;;5034845;28;20191;-70
2022/02/10 02:18:25;;;;;;;0.30;0.30;;;2.10;97.90;;;;;;5036021;28;20409;-70
2022/02/10 02:20:53;;;;;;;0.40;0.40;;;2.10;97.90;;;;;;5036169;28;20547;-70
2022/02/10 02:23:21;;;;;;;0.40;0.40;;;2.10;97.90;;;;;;5036086;28;20535;-70
2022/02/10 02:25:50;;;;;;;0.30;0.30;;;2.10;98.00;;;;;;5034576;28;20669;-70
2022/02/10 02:28:16;;;;;;;0.30;0.30;;;2.10;98.40;;;;;;5035750;28;20192;-70
2022/02/10 02:30:52;;;;;;;0.40;0.40;;;2.10;98.20;;;;;;5035865;28;20208;-70
2022/02/10 03:05:16;;;;;;;0.30;0.30;;;2.00;97.90;;;;;;5035254;28;20234;-71
2022/02/10 03:12:39;;;;;;;0.30;0.30;;;2.00;97.90;;;;;;5035328;28;20183;-70
2022/02/10 03:15:13;;;;;;;0.30;0.30;;;2.00;97.80;;;;;;5035160;28;20246;-70
2022/02/10 03:17:45;;;;;;;0.40;0.40;;;2.00;97.90;;;;;;5034939;28;20575;-70
2022/02/10 03:20:26;;;;;;;0.30;0.30;;;2.00;98.00;;;;;;5034910;28;20175;-70
2022/02/10 03:59:40;;;;;;;0.30;0.30;;;2.00;97.90;;;;;;5035046;28;20172;-70
2022/02/10 04:15:10;;;;;;;0.40;0.40;;;2.20;98.40;;;;;;5034125;28;20188;-70
2022/02/10 04:17:39;;;;;;;0.40;0.40;;;2.20;98.40;;;;;;5028216;28;20231;-70
2022/02/10 04:22:45;;;;;;;0.30;0.30;;;2.20;98.60;;;;;;5034130;28;20205;-70
2022/02/10 04:25:35;;;;;;;0.40;0.40;;;2.30;98.90;;;;;;5033511;28;20620;-70
2022/02/10 04:44:19;;;;;;;0.30;0.30;;;3.00;98.20;;;;;;5033847;28;20303;-70
2022/02/10 04:57:53;;;;;;;0.30;0.30;;;3.40;97.50;;;;;;5033470;28;20174;-70
2022/02/10 05:18:55;;;;;;;0.40;0.40;;;3.90;96.00;;;;;;5033082;28;20278;-70
2022/02/10 05:32:33;;;;;;;0.40;0.40;;;4.10;95.70;;;;;;5036017;28;20219;-75
2022/02/10 05:35:35;;;;;;;0.30;0.30;;;4.20;95.70;;;;;;5036469;28;20194;-74
2022/02/10 05:37:57;;;;;;;0.40;0.40;;;4.30;95.50;;;;;;5034957;28;20274;-72
2022/02/10 05:40:55;;;;;;;0.30;0.30;;;4.30;95.40;;;;;;5037185;28;20189;-71
2022/02/10 05:43:30;;;;;;;0.30;0.30;;;4.40;95.70;;;;;;5037227;28;20322;-71
2022/02/10 05:59:21;;;;;;;0.38;0.38;;;4.60;94.80;;;;;;5036413;28;20308;-74
2022/02/10 06:56:37;;;;;;;0.30;0.30;;;5.00;94.60;;;;;;5035600;28;20237;-71
2022/02/10 07:42:57;;;;;;;0.30;0.30;;;5.40;93.90;;;;;;5036002;28;20189;-70
2022/02/10 07:57:48;;;;;;;0.40;0.40;;;7.40;91.70;;;;;;5034648;28;20169;-74
2022/02/10 09:05:09;;;;;;;0.40;0.40;;;11.30;62.40;;;;;;5033151;28;20256;-77
2022/02/10 09:08:44;;;;;;;0.30;0.30;;;11.40;62.80;;;;;;5033250;28;20197;-69
2022/02/10 09:15:51;;;;;;;0.60;0.60;;;11.50;63.10;;;;;;5031893;28;20618;-72
2022/02/10 09:21:38;;;;;;;0.30;0.30;;;11.60;63.00;;;;;;5033598;28;20269;-77
2022/02/10 09:56:45;;;;;;;0.30;0.30;;;11.90;64.00;;;;;;5032356;28;20198;-70
2022/02/10 10:02:06;;;;;;;0.30;0.30;;;12.10;63.30;;;;;;5031449;28;20178;-70
2022/02/10 10:04:44;;;;;;;0.30;0.30;;;12.20;63.20;;;;;;5030863;28;20218;-70
2022/02/10 10:10:20;;;;;;;0.30;0.30;;;12.10;63.80;;;;;;5036317;28;20174;-73
2022/02/10 10:52:42;;;;;;;0.30;0.30;;;14.80;57.10;;;;;;5035178;28;20449;-71
2022/02/10 10:55:16;;;;;;;0.37;0.37;;;15.20;56.10;;;;;;5035363;28;20438;-70
2022/02/10 10:57:47;;;;;;;0.30;0.30;;;15.40;54.80;;;;;;5035523;28;20386;-70
2022/02/10 11:00:45;;;;;;;0.30;0.30;;;15.20;54.60;;;;;;5035348;28;20414;-71
2022/02/10 11:07:50;;;;;;;0.77;0.77;;;16.00;53.20;;;;;;5035287;28;20510;-70
2022/02/10 11:37:28;;;;;;;0.30;0.30;;;15.10;54.60;;;;;;5035038;28;20429;-71
2022/02/10 11:39:37;;;;;;;0.30;0.30;;;15.00;55.20;;;;;;5033909;28;20906;-71
2022/02/10 11:59:59;;;;;;;0.30;0.30;;;13.60;57.50;;;;;;5034780;28;20485;-70
2022/02/10 14:10:02;;;;;;;0.40;0.40;;;9.70;79.00;;;;;;5036162;28;20189;-71
2022/02/10 14:14:58;;;;;;;0.40;0.40;;;10.20;77.40;;;;;;5036403;28;20683;-70
2022/02/10 14:17:43;;;;;;;0.30;0.30;;;10.30;76.70;;;;;;5036352;28;20199;-70
2022/02/10 14:20:34;;;;;;;0.30;0.30;;;10.10;77.50;;;;;;5035985;28;20257;-71
2022/02/10 14:23:17;;;;;;;0.30;0.30;;;10.10;78.00;;;;;;5036023;28;20189;-70
2022/02/10 14:25:55;;;;;;;0.50;0.50;;;10.10;78.00;;;;;;5036174;28;20206;-70
2022/02/10 14:28:22;;;;;;;0.30;0.30;;;10.10;78.00;;;;;;5034488;28;20151;-68
2022/02/10 14:30:51;;;;;;;1.55;1.45;;;10.00;78.70;;;;;;5036304;28;20166;-71
2022/02/10 14:33:24;;;;;;;0.40;0.40;;;10.10;78.40;;;;;;5035557;28;20240;-70
2022/02/10 14:35:57;;;;;;;0.30;0.30;;;10.10;78.20;;;;;;5035170;28;20199;-78
2022/02/10 16:17:12;;;;;;;0.30;0.30;;;8.20;84.80;;;;;;5034263;28;20183;-70
2022/02/10 16:19:40;;;;;;;0.40;0.40;;;8.10;85.10;;;;;;5032801;28;20189;-70
2022/02/10 16:22:21;;;;;;;0.30;0.30;;;8.00;85.60;;;;;;5034011;28;20238;-71
2022/02/10 16:24:59;;;;;;;0.40;0.40;;;7.80;86.50;;;;;;5033980;28;20200;-71
2022/02/10 16:27:28;;;;;;;0.30;0.30;;;7.60;87.50;;;;;;5033815;28;20168;-70
2022/02/10 16:30:07;;;;;;;0.30;0.30;;;7.50;88.20;;;;;;5033680;28;20274;-71
2022/02/10 16:32:34;;;;;;;0.40;0.40;;;7.50;88.70;;;;;;5033838;28;20175;-71
2022/02/10 16:35:03;;;;;;;0.40;0.40;;;7.40;89.10;;;;;;5033845;28;20194;-69
2022/02/10 16:37:30;;;;;;;0.40;0.40;;;7.30;89.90;;;;;;5033528;28;20184;-70
2022/02/10 16:39:55;;;;;;;0.40;0.40;;;7.40;90.10;;;;;;5033472;28;20680;-71
2022/02/10 16:42:21;;;;;;;0.37;0.37;;;7.20;90.20;;;;;;5033586;28;20203;-70
2022/02/10 16:44:51;;;;;;;0.30;0.30;;;7.20;90.50;;;;;;5033445;28;20687;-71
2022/02/10 16:47:18;;;;;;;0.40;0.40;;;7.00;90.80;;;;;;5033552;28;20167;-71
2022/02/10 16:49:50;;;;;;;0.40;0.40;;;6.90;91.00;;;;;;5033142;28;20178;-71
2022/02/10 16:52:30;;;;;;;0.40;0.40;;;6.90;91.50;;;;;;5033631;28;20163;-71
2022/02/10 16:55:10;;;;;;;0.40;0.40;;;6.90;92.00;;;;;;5033603;28;20194;-70
2022/02/10 17:19:47;;;;;;;0.40;0.40;;;7.60;91.20;;;;;;5037168;28;20163;-71
2022/02/10 17:27:24;;;;;;;0.40;0.40;;;7.70;90.60;;;;;;5037429;28;20162;-71
2022/02/10 17:53:55;;;;;;;0.40;0.40;;;7.70;90.60;;;;;;5036832;28;20524;-70
2022/02/10 17:56:21;;;;;;;0.40;0.40;;;7.70;90.40;;;;;;5036621;28;20202;-71
2022/02/10 17:58:48;;;;;;;0.40;0.40;;;7.80;90.40;;;;;;5035097;28;20180;-71
2022/02/10 18:01:49;;;;;;;;;;;;;;;;;;;;;
2022/02/10 18:04:16;;;;;;;0.40;0.40;;;7.80;89.60;;;;;;5036526;28;20198;-70
2022/02/10 18:06:45;;;;;;;0.40;0.40;;;7.70;89.70;;;;;;5036486;28;20669;-71
2022/02/10 18:14:16;;;;;;;0.40;0.40;;;7.70;90.10;;;;;;5036508;28;20183;-71
2022/02/10 18:16:50;;;;;;;0.40;0.40;;;7.70;90.10;;;;;;5036267;28;20545;-71
2022/02/10 18:19:22;;;;;;;0.40;0.40;;;7.60;89.90;;;;;;5034825;28;20181;-71
2022/02/10 19:09:59;;;;;;;0.30;0.30;;;8.10;89.30;;;;;;5035247;28;20188;-71
2022/02/10 19:12:28;;;;;;;0.40;0.40;;;8.10;89.60;;;;;;5035472;28;20173;-71
2022/02/10 19:14:55;;;;;;;0.40;0.40;;;7.90;90.10;;;;;;5035183;28;20259;-70
2022/02/10 19:17:23;;;;;;;0.40;0.40;;;7.90;90.80;;;;;;5035311;28;20652;-70
2022/02/10 19:19:49;;;;;;;0.40;0.40;;;7.90;90.60;;;;;;5034920;28;20183;-70
2022/02/10 19:22:15;;;;;;;0.40;0.40;;;7.90;90.70;;;;;;5035225;28;20168;-71
2022/02/10 19:24:40;;;;;;;0.40;0.40;;;8.00;90.80;;;;;;5034885;28;20605;-71
2022/02/10 19:27:07;;;;;;;0.40;0.40;;;8.00;90.50;;;;;;5034992;28;20408;-70
2022/02/10 19:29:32;;;;;;;0.40;0.40;;;8.00;90.50;;;;;;5034850;28;20168;-71
2022/02/10 19:31:58;;;;;;;0.40;0.40;;;8.00;90.70;;;;;;5035075;28;20212;-70
2022/02/10 19:34:30;;;;;;;0.37;0.37;;;8.10;90.70;;;;;;5034887;28;20454;-70
2022/02/10 19:36:56;;;;;;;0.40;0.40;;;8.10;90.60;;;;;;5034908;28;20284;-71
2022/02/10 19:39:23;;;;;;;0.40;0.40;;;8.00;90.60;;;;;;5033685;28;20219;-71
2022/02/10 19:41:50;;;;;;;0.35;0.35;;;8.00;90.70;;;;;;5034740;28;20261;-71
2022/02/10 19:44:16;;;;;;;0.30;0.30;;;8.00;90.90;;;;;;5034789;28;20196;-71
2022/02/10 19:46:43;;;;;;;0.30;0.30;;;8.00;91.40;;;;;;5034507;28;20679;-71
2022/02/10 19:49:14;;;;;;;0.50;0.50;;;8.00;91.30;;;;;;5034367;28;20409;-71
2022/02/10 19:51:40;;;;;;;0.38;0.38;;;8.00;91.10;;;;;;5033259;28;20656;-70
2022/02/10 19:54:06;;;;;;;0.30;0.30;;;8.00;91.00;;;;;;5034473;28;20203;-71
2022/02/10 19:56:33;;;;;;;0.40;0.40;;;8.00;91.20;;;;;;5034367;28;20192;-71
2022/02/10 19:58:58;;;;;;;0.40;0.40;;;8.00;91.40;;;;;;5034215;28;20653;-71
2022/02/10 20:01:32;;;;;;;0.40;0.40;;;8.10;91.40;;;;;;5071160;28;20524;-69
2022/02/10 20:04:00;;;;;;;0.33;0.33;;;8.00;91.40;;;;;;5070807;28;20198;-69
2022/02/10 20:06:26;;;;;;;0.40;0.40;;;8.10;91.50;;;;;;5070697;28;20232;-70
2022/02/10 20:08:52;;;;;;;0.50;0.50;;;8.00;91.40;;;;;;5070719;28;20167;-70
2022/02/10 20:11:17;;;;;;;0.30;0.30;;;7.90;91.90;;;;;;5070909;28;20534;-68
2022/02/10 20:13:43;;;;;;;3.30;1.23;;;7.90;92.00;;;;;;5069472;28;20694;-70
2022/02/10 20:16:11;;;;;;;0.50;0.50;;;7.90;92.00;;;;;;5070566;28;20182;-70
2022/02/10 20:18:37;;;;;;;0.30;0.30;;;8.00;92.20;;;;;;5070312;28;20407;-70
2022/02/10 20:21:04;;;;;;;0.30;0.30;;;8.00;92.10;;;;;;5070426;28;20613;-69
2022/02/10 20:23:33;;;;;;;0.30;0.30;;;8.10;92.20;;;;;;5070499;28;20398;-70
2022/02/10 20:26:01;;;;;;;0.40;0.40;;;8.10;92.00;;;;;;5070511;28;20188;-69
2022/02/10 20:28:29;;;;;;;0.40;0.40;;;8.20;91.90;;;;;;5070045;28;20543;-68
2022/02/10 20:30:55;;;;;;;0.40;0.40;;;8.10;92.20;;;;;;5070343;28;20178;-70
2022/02/10 20:33:24;;;;;;;0.50;0.50;;;8.20;92.20;;;;;;5069049;28;20191;-70
2022/02/10 20:35:54;;;;;;;0.30;0.30;;;8.30;92.40;;;;;;5070389;28;20193;-70
2022/02/10 20:38:20;;;;;;;0.30;0.30;;;8.20;91.80;;;;;;5068573;28;20518;-70
2022/02/10 20:40:54;;;;;;;0.95;0.95;;;8.20;92.20;;;;;;5070117;28;20207;-70
2022/02/10 20:43:19;;;;;;;0.40;0.40;;;8.10;92.20;;;;;;5069979;28;20246;-69
2022/02/10 20:45:53;;;;;;;0.40;0.40;;;8.10;92.40;;;;;;5069953;28;20222;-70
2022/02/10 20:48:19;;;;;;;0.30;0.30;;;8.00;92.20;;;;;;5070000;28;20437;-69
2022/02/10 20:50:46;;;;;;;0.40;0.40;;;7.90;92.50;;;;;;5069975;28;20650;-69
2022/02/10 20:53:12;;;;;;;0.40;0.40;;;8.00;92.90;;;;;;5069960;28;20403;-69
2022/02/10 20:55:37;;;;;;;0.40;0.40;;;8.00;92.90;;;;;;5069800;28;20709;-70
2022/02/10 20:58:03;;;;;;;0.40;0.40;;;8.10;93.10;;;;;;5069633;28;20411;-69
2022/02/10 21:00:31;;;;;;;0.37;0.37;;;8.10;92.90;;;;;;5069307;28;20254;-69
2022/02/10 21:02:57;;;;;;;0.40;0.40;;;8.10;93.20;;;;;;5069671;28;20160;-70
2022/02/10 21:05:32;;;;;;;0.30;0.30;;;8.10;93.10;;;;;;5069538;28;20197;-68
2022/02/10 21:08:10;;;;;;;0.40;0.40;;;8.10;93.40;;;;;;5069517;28;20256;-70
2022/02/10 21:10:37;;;;;;;0.40;0.40;;;8.10;93.40;;;;;;5069255;28;20176;-70
2022/02/10 21:13:05;;;;;;;0.40;0.40;;;8.20;93.80;;;;;;5055612;28;20262;-69
2022/02/10 21:15:38;;;;;;;0.30;0.30;;;8.20;93.80;;;;;;5055993;28;20290;-70
2022/02/10 21:18:05;;;;;;;0.30;0.30;;;8.10;94.10;;;;;;5056064;28;20162;-69
2022/02/10 21:20:33;;;;;;;0.60;0.60;;;8.20;94.60;;;;;;5056068;28;20804;-69
2022/02/10 21:23:15;;;;;;;0.30;0.30;;;8.10;94.30;;;;;;5056142;28;20254;-69
2022/02/10 21:25:42;;;;;;;0.30;0.30;;;8.00;94.60;;;;;;5055934;28;20665;-70
2022/02/10 21:28:24;;;;;;;0.40;0.40;;;8.00;95.40;;;;;;5056021;28;20167;-69
2022/02/10 21:30:53;;;;;;;0.40;0.40;;;7.90;95.40;;;;;;5056207;28;20207;-69
2022/02/10 21:33:29;;;;;;;0.40;0.40;;;7.90;95.60;;;;;;5056016;28;20172;-70
2022/02/10 21:38:46;;;;;;;0.40;0.40;;;7.80;96.00;;;;;;5055801;28;20187;-70
2022/02/10 21:42:29;;;;;;;0.40;0.40;;;7.60;96.40;;;;;;5054499;28;20675;-69
2022/02/10 22:11:10;;;;;;;0.40;0.40;;;7.60;97.70;;;;;;5055481;28;20549;-69
2022/02/10 22:19:09;;;;;;;0.40;0.40;;;7.50;97.30;;;;;;5055010;28;20322;-69
2022/02/10 22:21:39;;;;;;;0.40;0.40;;;7.40;97.20;;;;;;5055131;28;20181;-70
2022/02/10 22:24:11;;;;;;;0.40;0.40;;;7.40;97.50;;;;;;5053930;28;20165;-69
2022/02/10 22:26:38;;;;;;;0.30;0.30;;;7.50;97.50;;;;;;5055023;28;20198;-70
2022/02/10 22:29:10;;;;;;;0.40;0.40;;;7.50;97.40;;;;;;5054649;28;20166;-70
2022/02/10 22:36:35;;;;;;;0.50;0.50;;;7.60;97.90;;;;;;5054564;28;20196;-70
2022/02/10 22:39:03;;;;;;;0.40;0.40;;;7.60;97.90;;;;;;5054405;28;20195;-69
2022/02/10 22:41:30;;;;;;;0.40;0.40;;;7.60;97.90;;;;;;5054674;28;20198;-69
2022/02/10 22:43:56;;;;;;;0.38;0.38;;;7.50;98.00;;;;;;5054496;28;20533;-69
2022/02/10 22:46:22;;;;;;;0.30;0.30;;;7.60;98.10;;;;;;5054371;28;20194;-70
2022/02/10 22:48:49;;;;;;;0.40;0.40;;;7.50;98.50;;;;;;5054687;28;20258;-70
2022/02/10 22:51:18;;;;;;;0.30;0.30;;;7.40;99.00;;;;;;5054428;28;20239;-69
2022/02/10 22:53:44;;;;;;;0.30;0.30;;;7.60;98.70;;;;;;5054361;28;20687;-69
2022/02/10 22:56:12;;;;;;;0.30;0.30;;;7.50;98.60;;;;;;5054249;28;20622;-70
2022/02/10 22:58:39;;;;;;;0.30;0.30;;;7.20;99.10;;;;;;5054007;28;20164;-70
2022/02/10 23:01:07;;;;;;;0.30;0.30;;;7.20;99.80;;;;;;5053990;28;20203;-70
2022/02/10 23:03:34;;;;;;;0.40;0.40;;;7.30;99.90;;;;;;5054100;28;20178;-69
2022/02/10 23:06:00;;;;;;;0.30;0.30;;;7.30;99.70;;;;;;5054151;28;20690;-69
2022/02/10 23:08:26;;;;;;;0.30;0.30;;;7.40;99.70;;;;;;5052726;28;20174;-69
2022/02/10 23:10:52;;;;;;;0.30;0.30;;;7.50;99.60;;;;;;5054272;28;20183;-69
2022/02/10 23:13:21;;;;;;;0.30;0.30;;;7.50;99.10;;;;;;5054136;28;20902;-69
2022/02/10 23:15:48;;;;;;;0.32;0.32;;;7.60;99.20;;;;;;5053850;28;20198;-70
2022/02/10 23:18:16;;;;;;;0.30;0.30;;;7.40;99.20;;;;;;5053728;28;20170;-70
2022/02/10 23:20:43;;;;;;;0.30;0.30;;;6.90;99.90;;;;;;5053814;28;20197;-69
2022/02/10 23:23:10;;;;;;;0.40;0.40;;;7.00;99.90;;;;;;5054125;28;20167;-70
2022/02/10 23:25:37;;;;;;;0.30;0.30;;;7.30;99.90;;;;;;5054193;28;20250;-70
2022/02/10 23:28:06;;;;;;;0.30;0.30;;;7.40;99.90;;;;;;5053696;28;20194;-68
2022/02/10 23:30:31;;;;;;;0.30;0.30;;;7.50;99.90;;;;;;5053520;28;20196;-70
2022/02/10 23:33:05;;;;;;;0.30;0.30;;;7.60;99.90;;;;;;5053677;28;20171;-70
2022/02/10 23:38:18;;;;;;;0.30;0.30;;;7.50;99.90;;;;;;5053327;28;20588;-70
2022/02/10 23:43:36;;;;;;;0.30;0.30;;;7.40;99.90;;;;;;5060326;28;20198;-69
2022/02/10 23:46:01;;;;;;;0.40;0.40;;;7.30;99.90;;;;;;5053532;28;20187;-70
2022/02/10 23:48:29;;;;;;;0.30;0.30;;;7.30;99.90;;;;;;5053286;28;20202;-70
2022/02/10 23:50:54;;;;;;;0.30;0.30;;;7.00;99.90;;;;;;5053573;28;20506;-70
2022/02/10 23:53:20;;;;;;;0.40;0.40;;;7.00;99.90;;;;;;5053419;28;20177;-69
2022/02/10 23:55:47;;;;;;;0.40;0.40;;;6.90;99.90;;;;;;5053347;28;20771;-69
2022/02/10 23:58:46;;;;;;;0.35;0.35;;;7.00;99.90;;;;;;5053260;28;20400;-70
